sensor_id;sensor_type;location;lat;lon;timestamp;P1;durP1;ratioP1;P2;durP2;ratioP2
73239;SDS011;61452;40.054;4.110;2023-02-07T00:00:46;4.78;;;1.83;;
73239;SDS011;61452;40.054;4.110;2023-02-07T00:05:48;4.35;;;1.63;;
73239;SDS011;61452;40.054;4.110;2023-02-07T00:10:51;5.90;;;2.63;;
73239;SDS011;61452;40.054;4.110;2023-02-07T00:15:53;5.13;;;1.42;;
73239;SDS011;61452;40.054;4.110;2023-02-07T00:20:56;4.25;;;1.50;;
73239;SDS011;61452;40.054;4.110;2023-02-07T00:26:09;4.03;;;1.13;;
73239;SDS011;61452;40.054;4.110;2023-02-07T00:31:23;5.40;;;1.42;;
73239;SDS011;61452;40.054;4.110;2023-02-07T00:36:28;5.55;;;1.67;;
73239;SDS011;61452;40.054;4.110;2023-02-07T00:41:33;4.28;;;1.50;;
73239;SDS011;61452;40.054;4.110;2023-02-07T00:46:35;3.22;;;1.30;;
73239;SDS011;61452;40.054;4.110;2023-02-07T00:51:38;6.80;;;1.88;;
73239;SDS011;61452;40.054;4.110;2023-02-07T00:56:41;5.57;;;1.55;;
73239;SDS011;61452;40.054;4.110;2023-02-07T01:01:43;4.45;;;1.58;;
73239;SDS011;61452;40.054;4.110;2023-02-07T01:06:45;5.25;;;1.48;;
73239;SDS011;61452;40.054;4.110;2023-02-07T01:11:48;5.68;;;1.52;;
73239;SDS011;61452;40.054;4.110;2023-02-07T01:16:50;5.65;;;1.50;;
73239;SDS011;61452;40.054;4.110;2023-02-07T01:21:53;4.05;;;1.25;;
73239;SDS011;61452;40.054;4.110;2023-02-07T01:26:55;4.72;;;1.50;;
73239;SDS011;61452;40.054;4.110;2023-02-07T01:31:58;4.50;;;1.13;;
73239;SDS011;61452;40.054;4.110;2023-02-07T01:37:01;2.83;;;1.20;;
73239;SDS011;61452;40.054;4.110;2023-02-07T01:42:03;5.68;;;1.20;;
73239;SDS011;61452;40.054;4.110;2023-02-07T01:47:06;3.65;;;1.50;;
73239;SDS011;61452;40.054;4.110;2023-02-07T01:52:14;3.70;;;1.33;;
73239;SDS011;61452;40.054;4.110;2023-02-07T01:57:21;4.07;;;1.17;;
73239;SDS011;61452;40.054;4.110;2023-02-07T02:02:25;3.47;;;1.45;;
73239;SDS011;61452;40.054;4.110;2023-02-07T02:07:30;5.85;;;1.55;;
73239;SDS011;61452;40.054;4.110;2023-02-07T02:12:43;5.25;;;1.30;;
73239;SDS011;61452;40.054;4.110;2023-02-07T02:29:23;4.63;;;1.20;;
73239;SDS011;61452;40.054;4.110;2023-02-07T02:45:28;6.47;;;1.20;;
73239;SDS011;61452;40.054;4.110;2023-02-07T02:50:36;4.03;;;0.93;;
73239;SDS011;61452;40.054;4.110;2023-02-07T03:06:49;3.85;;;1.10;;
73239;SDS011;61452;40.054;4.110;2023-02-07T03:12:00;1.92;;;0.63;;
73239;SDS011;61452;40.054;4.110;2023-02-07T03:17:12;3.30;;;1.05;;
73239;SDS011;61452;40.054;4.110;2023-02-07T03:27:27;3.08;;;1.08;;
73239;SDS011;61452;40.054;4.110;2023-02-07T03:32:35;4.45;;;1.00;;
73239;SDS011;61452;40.054;4.110;2023-02-07T03:37:41;3.72;;;1.00;;
73239;SDS011;61452;40.054;4.110;2023-02-07T03:42:52;3.15;;;1.08;;
73239;SDS011;61452;40.054;4.110;2023-02-07T03:48:06;3.15;;;0.70;;
73239;SDS011;61452;40.054;4.110;2023-02-07T03:53:09;2.83;;;1.15;;
73239;SDS011;61452;40.054;4.110;2023-02-07T03:58:11;3.25;;;0.82;;
73239;SDS011;61452;40.054;4.110;2023-02-07T04:03:13;1.98;;;0.80;;
73239;SDS011;61452;40.054;4.110;2023-02-07T04:08:16;5.32;;;1.08;;
73239;SDS011;61452;40.054;4.110;2023-02-07T04:13:18;2.72;;;1.02;;
73239;SDS011;61452;40.054;4.110;2023-02-07T04:18:20;4.93;;;1.08;;
73239;SDS011;61452;40.054;4.110;2023-02-07T04:23:23;3.05;;;1.08;;
73239;SDS011;61452;40.054;4.110;2023-02-07T04:28:25;3.00;;;0.80;;
73239;SDS011;61452;40.054;4.110;2023-02-07T04:33:28;2.38;;;0.80;;
73239;SDS011;61452;40.054;4.110;2023-02-07T04:38:31;2.85;;;0.80;;
73239;SDS011;61452;40.054;4.110;2023-02-07T04:43:34;3.47;;;1.00;;
73239;SDS011;61452;40.054;4.110;2023-02-07T04:48:37;2.70;;;1.00;;
73239;SDS011;61452;40.054;4.110;2023-02-07T04:53:40;3.95;;;0.90;;
73239;SDS011;61452;40.054;4.110;2023-02-07T04:58:42;3.40;;;0.77;;
73239;SDS011;61452;40.054;4.110;2023-02-07T05:03:44;2.78;;;0.77;;
73239;SDS011;61452;40.054;4.110;2023-02-07T05:08:46;2.03;;;0.85;;
73239;SDS011;61452;40.054;4.110;2023-02-07T05:13:48;2.42;;;0.80;;
73239;SDS011;61452;40.054;4.110;2023-02-07T05:18:51;3.60;;;1.05;;
73239;SDS011;61452;40.054;4.110;2023-02-07T05:23:53;4.00;;;0.77;;
73239;SDS011;61452;40.054;4.110;2023-02-07T05:28:55;2.90;;;0.90;;
73239;SDS011;61452;40.054;4.110;2023-02-07T05:33:57;1.45;;;0.55;;
73239;SDS011;61452;40.054;4.110;2023-02-07T05:39:00;2.60;;;0.82;;
73239;SDS011;61452;40.054;4.110;2023-02-07T05:44:02;2.30;;;0.50;;
73239;SDS011;61452;40.054;4.110;2023-02-07T05:49:04;2.90;;;0.70;;
73239;SDS011;61452;40.054;4.110;2023-02-07T05:54:06;1.10;;;0.50;;
73239;SDS011;61452;40.054;4.110;2023-02-07T05:59:08;3.25;;;0.68;;
73239;SDS011;61452;40.054;4.110;2023-02-07T06:04:11;2.30;;;0.77;;
73239;SDS011;61452;40.054;4.110;2023-02-07T06:09:13;1.73;;;0.60;;
73239;SDS011;61452;40.054;4.110;2023-02-07T06:14:15;3.67;;;0.55;;
73239;SDS011;61452;40.054;4.110;2023-02-07T06:19:17;2.03;;;0.80;;
73239;SDS011;61452;40.054;4.110;2023-02-07T06:24:20;2.78;;;1.10;;
73239;SDS011;61452;40.054;4.110;2023-02-07T06:29:23;2.40;;;0.55;;
73239;SDS011;61452;40.054;4.110;2023-02-07T06:34:25;1.50;;;0.60;;
73239;SDS011;61452;40.054;4.110;2023-02-07T06:39:27;1.58;;;0.70;;
73239;SDS011;61452;40.054;4.110;2023-02-07T06:44:29;1.42;;;0.55;;
73239;SDS011;61452;40.054;4.110;2023-02-07T06:49:31;2.80;;;0.88;;
73239;SDS011;61452;40.054;4.110;2023-02-07T06:54:34;1.85;;;0.60;;
73239;SDS011;61452;40.054;4.110;2023-02-07T06:59:36;1.90;;;0.60;;
73239;SDS011;61452;40.054;4.110;2023-02-07T07:04:38;1.73;;;0.60;;
73239;SDS011;61452;40.054;4.110;2023-02-07T07:09:41;1.20;;;0.45;;
73239;SDS011;61452;40.054;4.110;2023-02-07T07:14:43;1.77;;;0.55;;
73239;SDS011;61452;40.054;4.110;2023-02-07T07:19:45;2.47;;;0.55;;
73239;SDS011;61452;40.054;4.110;2023-02-07T07:24:48;1.73;;;0.55;;
73239;SDS011;61452;40.054;4.110;2023-02-07T07:29:51;2.05;;;0.60;;
73239;SDS011;61452;40.054;4.110;2023-02-07T07:34:53;0.88;;;0.50;;
73239;SDS011;61452;40.054;4.110;2023-02-07T07:39:55;2.03;;;0.50;;
73239;SDS011;61452;40.054;4.110;2023-02-07T07:44:58;1.90;;;1.33;;
73239;SDS011;61452;40.054;4.110;2023-02-07T07:50:00;2.67;;;0.80;;
73239;SDS011;61452;40.054;4.110;2023-02-07T07:55:02;2.30;;;0.55;;
73239;SDS011;61452;40.054;4.110;2023-02-07T08:00:05;2.35;;;0.70;;
73239;SDS011;61452;40.054;4.110;2023-02-07T08:05:14;1.75;;;0.57;;
73239;SDS011;61452;40.054;4.110;2023-02-07T08:10:16;1.98;;;0.50;;
73239;SDS011;61452;40.054;4.110;2023-02-07T08:15:18;2.85;;;0.65;;
73239;SDS011;61452;40.054;4.110;2023-02-07T08:20:21;2.28;;;0.32;;
73239;SDS011;61452;40.054;4.110;2023-02-07T08:25:23;2.33;;;0.60;;
73239;SDS011;61452;40.054;4.110;2023-02-07T08:30:26;1.50;;;0.65;;
73239;SDS011;61452;40.054;4.110;2023-02-07T08:35:30;3.08;;;0.90;;
73239;SDS011;61452;40.054;4.110;2023-02-07T08:40:33;2.75;;;0.60;;
73239;SDS011;61452;40.054;4.110;2023-02-07T08:45:35;2.75;;;0.60;;
73239;SDS011;61452;40.054;4.110;2023-02-07T08:50:38;2.17;;;0.55;;
73239;SDS011;61452;40.054;4.110;2023-02-07T08:55:40;2.35;;;0.50;;
73239;SDS011;61452;40.054;4.110;2023-02-07T09:00:44;1.65;;;0.32;;
73239;SDS011;61452;40.054;4.110;2023-02-07T09:05:47;2.08;;;0.60;;
73239;SDS011;61452;40.054;4.110;2023-02-07T09:10:49;1.73;;;0.45;;
73239;SDS011;61452;40.054;4.110;2023-02-07T09:15:55;2.13;;;0.75;;
73239;SDS011;61452;40.054;4.110;2023-02-07T09:20:58;2.92;;;0.60;;
73239;SDS011;61452;40.054;4.110;2023-02-07T09:26:01;1.25;;;0.50;;
73239;SDS011;61452;40.054;4.110;2023-02-07T09:31:07;1.85;;;0.50;;
73239;SDS011;61452;40.054;4.110;2023-02-07T09:36:17;2.05;;;0.50;;
73239;SDS011;61452;40.054;4.110;2023-02-07T09:52:29;2.83;;;0.30;;
73239;SDS011;61452;40.054;4.110;2023-02-07T09:57:44;4.75;;;0.68;;
73239;SDS011;61452;40.054;4.110;2023-02-07T10:03:02;3.45;;;0.80;;
73239;SDS011;61452;40.054;4.110;2023-02-07T10:08:11;2.03;;;0.55;;
73239;SDS011;61452;40.054;4.110;2023-02-07T10:13:20;3.45;;;0.70;;
73239;SDS011;61452;40.054;4.110;2023-02-07T10:18:49;2.33;;;0.75;;
73239;SDS011;61452;40.054;4.110;2023-02-07T10:24:14;3.20;;;0.70;;
73239;SDS011;61452;40.054;4.110;2023-02-07T10:34:58;1.95;;;0.50;;
73239;SDS011;61452;40.054;4.110;2023-02-07T10:40:47;2.08;;;0.77;;
73239;SDS011;61452;40.054;4.110;2023-02-07T10:45:49;1.55;;;0.43;;
73239;SDS011;61452;40.054;4.110;2023-02-07T10:51:26;1.95;;;0.60;;
73239;SDS011;61452;40.054;4.110;2023-02-07T10:56:35;1.38;;;0.30;;
73239;SDS011;61452;40.054;4.110;2023-02-07T11:01:43;3.10;;;0.60;;
73239;SDS011;61452;40.054;4.110;2023-02-07T11:07:04;2.85;;;0.50;;
73239;SDS011;61452;40.054;4.110;2023-02-07T11:12:14;1.70;;;0.82;;
73239;SDS011;61452;40.054;4.110;2023-02-07T11:17:20;1.98;;;0.57;;
73239;SDS011;61452;40.054;4.110;2023-02-07T11:22:22;2.78;;;0.50;;
73239;SDS011;61452;40.054;4.110;2023-02-07T11:27:26;1.42;;;0.38;;
73239;SDS011;61452;40.054;4.110;2023-02-07T11:32:28;1.63;;;0.50;;
73239;SDS011;61452;40.054;4.110;2023-02-07T11:37:38;3.50;;;0.50;;
73239;SDS011;61452;40.054;4.110;2023-02-07T11:42:42;0.93;;;0.40;;
73239;SDS011;61452;40.054;4.110;2023-02-07T11:47:45;2.20;;;0.52;;
73239;SDS011;61452;40.054;4.110;2023-02-07T11:52:50;1.73;;;0.50;;
73239;SDS011;61452;40.054;4.110;2023-02-07T11:57:58;2.08;;;0.50;;
73239;SDS011;61452;40.054;4.110;2023-02-07T12:08:31;1.70;;;0.40;;
73239;SDS011;61452;40.054;4.110;2023-02-07T12:13:38;0.80;;;0.30;;
73239;SDS011;61452;40.054;4.110;2023-02-07T12:18:45;1.45;;;0.40;;
73239;SDS011;61452;40.054;4.110;2023-02-07T12:24:15;2.30;;;0.52;;
73239;SDS011;61452;40.054;4.110;2023-02-07T12:46:16;1.23;;;0.30;;
73239;SDS011;61452;40.054;4.110;2023-02-07T13:01:39;1.25;;;0.50;;
73239;SDS011;61452;40.054;4.110;2023-02-07T13:12:27;1.05;;;0.60;;
73239;SDS011;61452;40.054;4.110;2023-02-07T13:22:59;3.33;;;0.85;;
73239;SDS011;61452;40.054;4.110;2023-02-07T13:28:21;2.95;;;0.73;;
73239;SDS011;61452;40.054;4.110;2023-02-07T13:33:35;4.45;;;0.90;;
73239;SDS011;61452;40.054;4.110;2023-02-07T13:44:11;3.80;;;1.00;;
73239;SDS011;61452;40.054;4.110;2023-02-07T13:54:55;4.43;;;1.00;;
73239;SDS011;61452;40.054;4.110;2023-02-07T14:05:20;2.85;;;1.05;;
73239;SDS011;61452;40.054;4.110;2023-02-07T14:10:43;4.53;;;1.42;;
73239;SDS011;61452;40.054;4.110;2023-02-07T14:21:21;2.75;;;1.50;;
73239;SDS011;61452;40.054;4.110;2023-02-07T14:31:47;4.45;;;1.23;;
73239;SDS011;61452;40.054;4.110;2023-02-07T14:36:50;6.70;;;1.38;;
73239;SDS011;61452;40.054;4.110;2023-02-07T14:42:00;4.80;;;1.20;;
73239;SDS011;61452;40.054;4.110;2023-02-07T14:57:32;5.40;;;1.65;;
73239;SDS011;61452;40.054;4.110;2023-02-07T15:02:52;6.10;;;1.52;;
73239;SDS011;61452;40.054;4.110;2023-02-07T15:13:04;5.22;;;1.45;;
73239;SDS011;61452;40.054;4.110;2023-02-07T15:18:17;5.65;;;2.38;;
73239;SDS011;61452;40.054;4.110;2023-02-07T15:23:21;6.13;;;1.48;;
73239;SDS011;61452;40.054;4.110;2023-02-07T15:28:27;4.20;;;1.20;;
73239;SDS011;61452;40.054;4.110;2023-02-07T15:33:33;6.00;;;2.10;;
73239;SDS011;61452;40.054;4.110;2023-02-07T15:38:40;5.70;;;1.27;;
73239;SDS011;61452;40.054;4.110;2023-02-07T15:43:59;8.00;;;1.83;;
73239;SDS011;61452;40.054;4.110;2023-02-07T15:49:06;6.25;;;1.60;;
73239;SDS011;61452;40.054;4.110;2023-02-07T15:54:11;7.10;;;2.47;;
73239;SDS011;61452;40.054;4.110;2023-02-07T15:59:18;5.30;;;1.73;;
73239;SDS011;61452;40.054;4.110;2023-02-07T16:04:24;5.65;;;1.67;;
73239;SDS011;61452;40.054;4.110;2023-02-07T16:09:32;4.80;;;2.20;;
73239;SDS011;61452;40.054;4.110;2023-02-07T16:14:42;7.05;;;2.03;;
73239;SDS011;61452;40.054;4.110;2023-02-07T16:19:44;6.45;;;1.63;;
73239;SDS011;61452;40.054;4.110;2023-02-07T16:24:47;6.80;;;1.98;;
73239;SDS011;61452;40.054;4.110;2023-02-07T16:29:55;5.22;;;1.30;;
73239;SDS011;61452;40.054;4.110;2023-02-07T16:35:01;6.63;;;1.92;;
73239;SDS011;61452;40.054;4.110;2023-02-07T16:40:03;6.68;;;1.42;;
73239;SDS011;61452;40.054;4.110;2023-02-07T16:45:09;4.70;;;1.42;;
73239;SDS011;61452;40.054;4.110;2023-02-07T16:50:21;5.55;;;1.95;;
73239;SDS011;61452;40.054;4.110;2023-02-07T16:55:28;7.03;;;1.83;;
73239;SDS011;61452;40.054;4.110;2023-02-07T17:00:30;4.53;;;1.52;;
73239;SDS011;61452;40.054;4.110;2023-02-07T17:05:32;5.55;;;2.00;;
73239;SDS011;61452;40.054;4.110;2023-02-07T17:10:35;5.50;;;2.05;;
73239;SDS011;61452;40.054;4.110;2023-02-07T17:15:38;6.22;;;2.08;;
73239;SDS011;61452;40.054;4.110;2023-02-07T17:20:40;3.25;;;1.40;;
73239;SDS011;61452;40.054;4.110;2023-02-07T17:25:42;5.15;;;1.95;;
73239;SDS011;61452;40.054;4.110;2023-02-07T17:30:45;5.22;;;1.83;;
73239;SDS011;61452;40.054;4.110;2023-02-07T17:35:47;5.38;;;1.70;;
73239;SDS011;61452;40.054;4.110;2023-02-07T17:40:51;5.70;;;1.60;;
73239;SDS011;61452;40.054;4.110;2023-02-07T17:45:54;5.25;;;2.03;;
73239;SDS011;61452;40.054;4.110;2023-02-07T17:50:56;6.90;;;2.17;;
73239;SDS011;61452;40.054;4.110;2023-02-07T17:55:59;6.47;;;2.10;;
73239;SDS011;61452;40.054;4.110;2023-02-07T18:01:01;5.70;;;1.92;;
73239;SDS011;61452;40.054;4.110;2023-02-07T18:06:03;6.93;;;1.75;;
73239;SDS011;61452;40.054;4.110;2023-02-07T18:11:06;5.30;;;1.70;;
73239;SDS011;61452;40.054;4.110;2023-02-07T18:16:10;5.35;;;1.70;;
73239;SDS011;61452;40.054;4.110;2023-02-07T18:21:15;8.23;;;2.25;;
73239;SDS011;61452;40.054;4.110;2023-02-07T18:26:17;5.75;;;1.95;;
73239;SDS011;61452;40.054;4.110;2023-02-07T18:31:20;5.35;;;1.42;;
73239;SDS011;61452;40.054;4.110;2023-02-07T18:36:24;5.13;;;1.77;;
73239;SDS011;61452;40.054;4.110;2023-02-07T18:41:27;6.38;;;2.10;;
73239;SDS011;61452;40.054;4.110;2023-02-07T18:46:29;4.47;;;1.55;;
73239;SDS011;61452;40.054;4.110;2023-02-07T18:51:32;6.60;;;1.90;;
73239;SDS011;61452;40.054;4.110;2023-02-07T18:56:34;6.38;;;1.95;;
73239;SDS011;61452;40.054;4.110;2023-02-07T19:01:37;5.03;;;1.85;;
73239;SDS011;61452;40.054;4.110;2023-02-07T19:06:40;9.15;;;2.20;;
73239;SDS011;61452;40.054;4.110;2023-02-07T19:11:43;7.57;;;2.03;;
73239;SDS011;61452;40.054;4.110;2023-02-07T19:16:46;5.97;;;2.30;;
73239;SDS011;61452;40.054;4.110;2023-02-07T19:21:50;7.20;;;1.35;;
73239;SDS011;61452;40.054;4.110;2023-02-07T19:26:54;5.30;;;2.35;;
73239;SDS011;61452;40.054;4.110;2023-02-07T19:31:59;5.63;;;2.40;;
73239;SDS011;61452;40.054;4.110;2023-02-07T19:37:07;4.40;;;1.50;;
73239;SDS011;61452;40.054;4.110;2023-02-07T19:42:09;5.78;;;1.92;;
73239;SDS011;61452;40.054;4.110;2023-02-07T19:47:11;6.45;;;1.85;;
73239;SDS011;61452;40.054;4.110;2023-02-07T19:52:14;5.93;;;2.13;;
73239;SDS011;61452;40.054;4.110;2023-02-07T19:57:16;3.95;;;1.67;;
73239;SDS011;61452;40.054;4.110;2023-02-07T20:02:18;10.32;;;2.28;;
73239;SDS011;61452;40.054;4.110;2023-02-07T20:07:20;8.30;;;2.92;;
73239;SDS011;61452;40.054;4.110;2023-02-07T20:12:23;6.72;;;1.77;;
73239;SDS011;61452;40.054;4.110;2023-02-07T20:17:25;5.22;;;1.60;;
73239;SDS011;61452;40.054;4.110;2023-02-07T20:22:28;7.28;;;2.08;;
73239;SDS011;61452;40.054;4.110;2023-02-07T20:27:30;6.00;;;1.88;;
73239;SDS011;61452;40.054;4.110;2023-02-07T20:32:32;9.07;;;2.03;;
73239;SDS011;61452;40.054;4.110;2023-02-07T20:37:35;5.30;;;1.70;;
73239;SDS011;61452;40.054;4.110;2023-02-07T20:42:37;5.00;;;1.95;;
73239;SDS011;61452;40.054;4.110;2023-02-07T20:47:39;7.07;;;2.17;;
73239;SDS011;61452;40.054;4.110;2023-02-07T20:52:41;5.18;;;1.65;;
73239;SDS011;61452;40.054;4.110;2023-02-07T20:57:43;8.15;;;2.17;;
73239;SDS011;61452;40.054;4.110;2023-02-07T21:02:46;6.05;;;1.67;;
73239;SDS011;61452;40.054;4.110;2023-02-07T21:07:48;3.83;;;1.42;;
73239;SDS011;61452;40.054;4.110;2023-02-07T21:12:50;6.13;;;1.95;;
73239;SDS011;61452;40.054;4.110;2023-02-07T21:17:52;5.95;;;2.10;;
73239;SDS011;61452;40.054;4.110;2023-02-07T21:22:55;7.32;;;2.20;;
73239;SDS011;61452;40.054;4.110;2023-02-07T21:27:57;6.03;;;1.70;;
73239;SDS011;61452;40.054;4.110;2023-02-07T21:32:59;7.15;;;2.05;;
73239;SDS011;61452;40.054;4.110;2023-02-07T21:38:01;5.55;;;3.25;;
73239;SDS011;61452;40.054;4.110;2023-02-07T21:43:04;8.77;;;2.38;;
73239;SDS011;61452;40.054;4.110;2023-02-07T21:48:06;4.80;;;1.90;;
73239;SDS011;61452;40.054;4.110;2023-02-07T21:53:08;5.30;;;2.55;;
73239;SDS011;61452;40.054;4.110;2023-02-07T21:58:10;5.88;;;2.00;;
73239;SDS011;61452;40.054;4.110;2023-02-07T22:03:12;7.97;;;2.20;;
73239;SDS011;61452;40.054;4.110;2023-02-07T22:08:15;7.78;;;1.98;;
73239;SDS011;61452;40.054;4.110;2023-02-07T22:13:17;6.60;;;2.08;;
73239;SDS011;61452;40.054;4.110;2023-02-07T22:18:19;6.03;;;1.63;;
73239;SDS011;61452;40.054;4.110;2023-02-07T22:23:21;4.97;;;1.52;;
73239;SDS011;61452;40.054;4.110;2023-02-07T22:28:24;6.75;;;2.00;;
73239;SDS011;61452;40.054;4.110;2023-02-07T22:33:26;4.63;;;1.90;;
73239;SDS011;61452;40.054;4.110;2023-02-07T22:38:28;7.53;;;2.33;;
73239;SDS011;61452;40.054;4.110;2023-02-07T22:43:31;7.45;;;2.22;;
73239;SDS011;61452;40.054;4.110;2023-02-07T22:48:33;6.32;;;2.03;;
73239;SDS011;61452;40.054;4.110;2023-02-07T22:53:36;8.85;;;2.20;;
73239;SDS011;61452;40.054;4.110;2023-02-07T22:58:38;6.85;;;1.73;;
73239;SDS011;61452;40.054;4.110;2023-02-07T23:03:41;5.57;;;2.22;;
73239;SDS011;61452;40.054;4.110;2023-02-07T23:08:43;5.85;;;1.77;;
73239;SDS011;61452;40.054;4.110;2023-02-07T23:13:46;4.78;;;1.80;;
73239;SDS011;61452;40.054;4.110;2023-02-07T23:18:49;5.05;;;1.80;;
73239;SDS011;61452;40.054;4.110;2023-02-07T23:23:53;4.45;;;2.00;;
73239;SDS011;61452;40.054;4.110;2023-02-07T23:28:57;5.95;;;1.90;;
73239;SDS011;61452;40.054;4.110;2023-02-07T23:34:00;5.25;;;2.03;;
73239;SDS011;61452;40.054;4.110;2023-02-07T23:39:02;5.45;;;1.73;;
73239;SDS011;61452;40.054;4.110;2023-02-07T23:44:05;8.25;;;1.85;;
73239;SDS011;61452;40.054;4.110;2023-02-07T23:49:08;7.45;;;2.05;;
73239;SDS011;61452;40.054;4.110;2023-02-07T23:54:11;5.93;;;1.90;;
73239;SDS011;61452;40.054;4.110;2023-02-07T23:59:13;4.25;;;1.70;;
